KLCK/LCK METAR and TAF weather

Enter ICAO airport designator
Station Type Date Time Source
KLCK METAR 2020/03/31 09:55 UTC NOAA

KLCK 310955Z AUTO 36003KT 10SM OVC022 04/01 A3002 RMK AO2 T00400005


Station Type Date Time Source
KLCK Decoded METAR 2020/03/31 09:55 UTC NOAA

Rickenbacker Air National Guard Base, OH, United States (KLCK) 39-49N 082-56W
Mar 31, 2020 - 05:55 AM EDT / 2020.03.31 0955 UTC
Wind: from the N (360 degrees) at 3 MPH (3 KT):0
Visibility: 10 mile(s):0
Sky conditions: overcast
Temperature: 39.2 F (4.0 C)
Dew Point: 32.9 F (0.5 C)
Relative Humidity: 77%
Pressure (altimeter): 30.02 in. Hg (1016 hPa)
ob: KLCK 310955Z AUTO 36003KT 10SM OVC022 04/01 A3002 RMK AO2 T00400005
cycle: 10

Station Type Date Time Source
KLCK TAF 2020/03/31 09:33 UTC NOAA

TAF
AMD KLCK 310914Z 3109/0106 35005KT P6SM FEW025 OVC050
TEMPO 3110/3114 BKN025
FM311400 05004KT P6SM OVC025
FM312000 01008KT P6SM BKN025
FM010300 35008KT P6SM OVC015

Example: see airport list